createdAt,value
2023-05-13T00:01:50.845Z,98284.09
2023-05-13T00:04:17.734Z,98285.22
2023-05-13T00:06:44.586Z,98283.28
2023-05-13T00:09:11.872Z,98283.06
2023-05-13T00:11:38.725Z,98282.69
2023-05-13T00:14:06.675Z,98280.75
2023-05-13T00:16:33.545Z,98290.34
2023-05-13T00:19:00.475Z,98284.50
2023-05-13T00:21:27.711Z,98281.62
2023-05-13T00:23:54.611Z,98285.72
2023-05-13T00:26:21.874Z,98284.31
2023-05-13T00:28:48.870Z,98280.81
2023-05-13T00:31:15.766Z,98276.91
2023-05-13T00:33:42.603Z,98279.19
2023-05-13T00:36:12.409Z,98277.69
2023-05-13T00:38:39.294Z,98278.87
2023-05-13T00:41:06.484Z,98286.22
2023-05-13T00:43:33.362Z,98282.91
2023-05-13T00:46:00.280Z,98286.03
2023-05-13T00:48:27.178Z,98280.94
2023-05-13T00:50:54.111Z,98291.56
2023-05-13T00:53:21.124Z,98292.16
2023-05-13T00:55:47.980Z,98281.03
2023-05-13T00:58:14.965Z,98289.94
2023-05-13T01:00:54.168Z,98293.06
2023-05-13T01:03:44.687Z,98290.06
2023-05-13T01:06:15.047Z,98292.56
2023-05-13T01:08:51.571Z,98289.34
2023-05-13T01:11:22.282Z,98291.25
2023-05-13T01:13:52.043Z,98297.16
2023-05-13T01:16:21.369Z,98295.59
2023-05-13T01:18:52.847Z,98294.75
2023-05-13T01:21:26.873Z,98303.50
2023-05-13T01:23:53.793Z,98297.91
2023-05-13T01:26:21.673Z,98300.31
2023-05-13T01:28:48.691Z,98306.09
2023-05-13T01:31:16.017Z,98303.78
2023-05-13T01:33:43.403Z,98302.59
2023-05-13T01:36:10.862Z,98298.41
2023-05-13T01:38:38.208Z,98304.00
2023-05-13T01:41:05.215Z,98298.91
2023-05-13T01:43:32.349Z,98307.69
2023-05-13T01:46:00.718Z,98304.00
2023-05-13T01:48:27.653Z,98307.06
2023-05-13T01:50:56.096Z,98302.91
2023-05-13T01:53:23.047Z,98303.97
2023-05-13T01:55:50.285Z,98299.41
2023-05-13T01:58:17.182Z,98295.09
2023-05-13T02:00:44.069Z,98300.28
2023-05-13T02:03:10.994Z,98296.44
2023-05-13T02:05:37.909Z,98299.50
2023-05-13T02:08:04.947Z,98297.50
2023-05-13T02:10:31.982Z,98307.06
2023-05-13T02:12:58.856Z,98294.34
2023-05-13T02:15:25.796Z,98299.41
2023-05-13T02:17:52.676Z,98297.62
2023-05-13T02:20:19.919Z,98293.50
2023-05-13T02:22:46.982Z,98294.84
2023-05-13T02:25:13.852Z,98294.91
2023-05-13T02:27:40.744Z,98291.16
2023-05-13T02:30:08.090Z,98298.78
2023-05-13T02:32:35.012Z,98297.72
2023-05-13T02:35:01.851Z,98296.16
2023-05-13T02:37:28.670Z,98305.59
2023-05-13T02:39:55.527Z,98301.81
2023-05-13T02:42:22.376Z,98303.56
2023-05-13T02:44:49.293Z,98306.84
2023-05-13T02:47:16.269Z,98306.16
2023-05-13T02:49:43.178Z,98291.47
2023-05-13T02:52:10.031Z,98298.63
2023-05-13T02:54:37.016Z,98309.03
2023-05-13T02:57:04.002Z,98308.59
2023-05-13T02:59:31.196Z,98301.25
2023-05-13T03:01:58.029Z,98308.81
2023-05-13T03:04:25.467Z,98314.47
2023-05-13T03:06:53.154Z,98303.91
2023-05-13T03:09:20.035Z,98308.25
2023-05-13T03:11:47.143Z,98316.37
2023-05-13T03:14:14.025Z,98308.53
2023-05-13T03:16:41.060Z,98314.81
2023-05-13T03:19:08.078Z,98311.53
2023-05-13T03:21:35.029Z,98313.59
2023-05-13T03:24:01.917Z,98319.22
2023-05-13T03:26:28.754Z,98318.19
2023-05-13T03:28:55.617Z,98326.28
2023-05-13T03:31:23.275Z,98317.34
2023-05-13T03:33:50.225Z,98325.44
2023-05-13T03:36:17.098Z,98320.28
2023-05-13T03:38:43.988Z,98314.34
2023-05-13T03:41:10.839Z,98321.47
2023-05-13T03:43:37.737Z,98323.03
2023-05-13T03:46:04.615Z,98322.38
2023-05-13T03:48:31.500Z,98321.97
2023-05-13T03:50:58.345Z,98325.66
2023-05-13T03:53:25.384Z,98327.19
2023-05-13T03:55:52.212Z,98334.84
2023-05-13T03:58:19.426Z,98328.69
2023-05-13T04:00:47.325Z,98340.72
2023-05-13T04:03:18.362Z,98331.47
2023-05-13T04:05:46.809Z,98339.94
2023-05-13T04:08:13.901Z,98339.03
2023-05-13T04:10:40.785Z,98341.34
2023-05-13T04:13:08.133Z,98337.16
2023-05-13T04:15:35.023Z,98344.19
2023-05-13T04:18:01.891Z,98348.88
2023-05-13T04:20:29.358Z,98343.00
2023-05-13T04:22:56.298Z,98340.34
2023-05-13T04:25:23.280Z,98349.38
2023-05-13T04:27:50.219Z,98355.69
2023-05-13T04:30:17.151Z,98354.28
2023-05-13T04:32:44.288Z,98356.81
2023-05-13T04:35:11.337Z,98357.50
2023-05-13T04:37:38.653Z,98357.63
2023-05-13T04:40:06.845Z,98358.75
2023-05-13T04:42:33.897Z,98356.94
2023-05-13T04:45:00.791Z,98355.37
2023-05-13T04:47:27.704Z,98361.13
2023-05-13T04:49:54.671Z,98364.69
2023-05-13T04:52:21.870Z,98357.63
2023-05-13T04:54:48.720Z,98368.47
2023-05-13T04:57:15.688Z,98374.12
2023-05-13T04:59:42.551Z,98375.66
2023-05-13T05:02:09.480Z,98379.91
2023-05-13T05:04:36.333Z,98378.31
2023-05-13T05:07:03.128Z,98372.06
2023-05-13T05:09:30.401Z,98381.16
2023-05-13T05:11:57.249Z,98383.75
2023-05-13T05:14:23.869Z,98375.59
2023-05-13T05:16:50.723Z,98385.13
2023-05-13T05:19:17.700Z,98393.66
2023-05-13T05:21:44.631Z,98390.28
2023-05-13T05:24:11.449Z,98393.25
2023-05-13T05:26:38.297Z,98396.38
2023-05-13T05:29:05.118Z,98398.63
2023-05-13T05:31:32.089Z,98405.03
2023-05-13T05:33:59.286Z,98407.41
2023-05-13T05:36:26.141Z,98402.09
2023-05-13T05:38:53.189Z,98407.19
2023-05-13T05:41:20.195Z,98407.03
2023-05-13T05:43:47.113Z,98407.03
2023-05-13T05:46:14.058Z,98401.00
2023-05-13T05:48:40.926Z,98404.94
2023-05-13T05:51:07.769Z,98420.25
2023-05-13T05:53:35.802Z,98415.47
2023-05-13T05:56:02.677Z,98415.50
2023-05-13T05:58:29.859Z,98403.97
2023-05-13T06:00:57.235Z,98408.78
2023-05-13T06:03:24.599Z,98414.19
2023-05-13T06:05:51.592Z,98412.22
2023-05-13T06:08:18.503Z,98413.34
2023-05-13T06:10:45.686Z,98397.94
2023-05-13T06:13:12.504Z,98410.28
2023-05-13T06:15:39.283Z,98412.75
2023-05-13T06:18:06.388Z,98406.16
2023-05-13T06:20:33.307Z,98415.69
2023-05-13T06:23:00.144Z,98412.66
2023-05-13T06:25:27.071Z,98415.75
2023-05-13T06:27:53.946Z,98410.59
2023-05-13T06:30:21.895Z,98413.03
2023-05-13T06:33:00.227Z,98410.31
2023-05-13T06:35:28.859Z,98416.06
2023-05-13T06:37:55.725Z,98414.25
2023-05-13T06:40:22.750Z,98412.19
2023-05-13T06:42:49.909Z,98415.84
2023-05-13T06:45:16.937Z,98417.81
2023-05-13T06:47:43.815Z,98417.63
2023-05-13T06:50:11.260Z,98426.34
2023-05-13T06:52:39.388Z,98420.63
2023-05-13T06:55:07.923Z,98430.59
2023-05-13T06:57:42.483Z,98428.56
2023-05-13T07:00:10.503Z,98430.22
2023-05-13T07:02:37.442Z,98434.38
2023-05-13T07:05:05.137Z,98424.56
2023-05-13T07:07:32.019Z,98428.66
2023-05-13T07:09:58.972Z,98422.72
2023-05-13T07:12:25.884Z,98429.69
2023-05-13T07:14:52.786Z,98429.22
2023-05-13T07:17:19.671Z,98421.47
2023-05-13T07:19:46.582Z,98427.97
2023-05-13T07:22:13.470Z,98431.28
2023-05-13T07:24:41.941Z,98426.56
2023-05-13T07:27:08.850Z,98435.94
2023-05-13T07:29:35.720Z,98430.81
2023-05-13T07:32:06.439Z,98433.59
2023-05-13T07:34:33.420Z,98434.88
2023-05-13T07:37:00.356Z,98438.34
2023-05-13T07:39:27.951Z,98438.09
2023-05-13T07:41:55.231Z,98430.78
2023-05-13T07:44:22.263Z,98434.88
2023-05-13T07:46:49.527Z,98433.25
2023-05-13T07:49:16.562Z,98430.19
2023-05-13T07:51:43.377Z,98440.78
2023-05-13T07:54:10.479Z,98446.28
2023-05-13T07:56:38.308Z,98447.09
2023-05-13T07:59:05.452Z,98443.34
2023-05-13T08:01:32.377Z,98442.94
2023-05-13T08:03:59.442Z,98452.78
2023-05-13T08:06:26.626Z,98444.66
2023-05-13T08:08:53.463Z,98453.03
2023-05-13T08:11:20.292Z,98464.97
2023-05-13T08:13:47.164Z,98460.87
2023-05-13T08:16:13.977Z,98455.69
2023-05-13T08:18:40.866Z,98463.28
2023-05-13T08:21:07.719Z,98465.69
2023-05-13T08:23:44.844Z,98468.19
2023-05-13T08:26:13.272Z,98473.75
2023-05-13T08:28:40.201Z,98471.03
2023-05-13T08:31:07.051Z,98474.53
2023-05-13T08:33:34.592Z,98474.28
2023-05-13T08:36:01.674Z,98468.28
2023-05-13T08:38:28.530Z,98477.22
2023-05-13T08:40:55.472Z,98476.09
2023-05-13T08:43:24.086Z,98481.56
2023-05-13T08:45:53.496Z,98479.00
2023-05-13T08:48:21.035Z,98480.75
2023-05-13T08:50:48.568Z,98477.69
2023-05-13T08:53:17.412Z,98485.16
2023-05-13T08:55:44.580Z,98480.09
2023-05-13T08:58:12.031Z,98476.31
2023-05-13T09:00:39.532Z,98481.88
2023-05-13T09:03:07.215Z,98480.91
2023-05-13T09:05:37.763Z,98481.03
2023-05-13T09:08:09.435Z,98484.00
2023-05-13T09:10:37.197Z,98483.78
2023-05-13T09:13:04.898Z,98479.06
2023-05-13T09:15:32.242Z,98480.28
2023-05-13T09:18:01.822Z,98479.03
2023-05-13T09:20:28.815Z,98467.75
2023-05-13T09:23:16.122Z,98481.59
2023-05-13T09:25:43.502Z,98480.88
2023-05-13T09:28:14.834Z,98486.34
2023-05-13T09:30:45.670Z,98490.09
2023-05-13T09:33:14.957Z,98494.81
2023-05-13T09:35:50.843Z,98485.72
2023-05-13T09:38:29.145Z,98490.66
2023-05-13T09:40:57.902Z,98491.00
2023-05-13T09:43:36.460Z,98489.25
2023-05-13T09:46:05.134Z,98493.47
2023-05-13T09:48:33.699Z,98492.78
2023-05-13T09:51:00.837Z,98495.22
2023-05-13T09:53:28.826Z,98500.22
2023-05-13T09:55:57.220Z,98501.56
2023-05-13T09:58:25.638Z,98490.75
2023-05-13T10:00:52.969Z,98501.72
2023-05-13T10:03:19.980Z,98494.06
2023-05-13T10:05:47.560Z,98502.22
2023-05-13T10:08:18.124Z,98499.75
2023-05-13T10:10:47.918Z,98500.31
2023-05-13T10:13:19.448Z,98491.63
2023-05-13T10:15:54.040Z,98487.22
2023-05-13T10:18:22.435Z,98489.38
2023-05-13T10:20:53.738Z,98490.47
2023-05-13T10:23:22.714Z,98488.47
2023-05-13T10:25:51.124Z,98493.59
2023-05-13T10:28:18.188Z,98490.84
2023-05-13T10:30:45.455Z,98490.78
2023-05-13T10:33:12.612Z,98492.31
2023-05-13T10:35:43.471Z,98487.97
2023-05-13T10:38:33.717Z,98489.88
2023-05-13T10:41:19.419Z,98484.75
2023-05-13T10:43:46.378Z,98489.16
2023-05-13T10:46:13.848Z,98483.63
2023-05-13T10:48:51.084Z,98489.28
2023-05-13T10:51:18.931Z,98485.72
2023-05-13T10:53:53.964Z,98480.31
2023-05-13T10:56:25.941Z,98482.84
2023-05-13T10:59:00.002Z,98495.16
2023-05-13T11:01:31.589Z,98487.19
2023-05-13T11:04:01.130Z,98494.53
2023-05-13T11:06:38.646Z,98499.75
2023-05-13T11:09:12.418Z,98495.41
2023-05-13T11:11:39.506Z,98495.09
2023-05-13T11:14:17.776Z,98492.91
2023-05-13T11:16:50.806Z,98490.84
2023-05-13T11:19:45.466Z,98484.81
2023-05-13T11:22:18.645Z,98492.78
2023-05-13T11:24:47.532Z,98495.44
2023-05-13T11:27:18.701Z,98494.00
2023-05-13T11:29:55.290Z,98494.91
2023-05-13T11:32:52.451Z,98496.53
2023-05-13T11:35:27.221Z,98496.94
2023-05-13T11:37:56.988Z,98501.16
2023-05-13T11:40:39.409Z,98508.53
2023-05-13T11:43:06.447Z,98512.38
2023-05-13T11:45:34.136Z,98509.69
2023-05-13T11:48:21.269Z,98506.09
2023-05-13T11:50:49.220Z,98510.00
2023-05-13T11:53:21.109Z,98508.94
2023-05-13T11:55:48.520Z,98521.75
2023-05-13T11:58:16.465Z,98523.84
2023-05-13T12:00:46.364Z,98520.25
2023-05-13T12:03:15.942Z,98503.47
2023-05-13T12:05:44.682Z,98503.47
2023-05-13T12:08:11.857Z,98506.94
2023-05-13T12:10:45.348Z,98505.31
2023-05-13T12:13:12.545Z,98505.25
2023-05-13T12:15:39.631Z,98505.59
2023-05-13T12:18:07.812Z,98502.72
2023-05-13T12:20:34.787Z,98512.91
2023-05-13T12:23:02.140Z,98506.34
2023-05-13T12:25:51.415Z,98503.94
2023-05-13T12:28:23.762Z,98512.34
2023-05-13T12:30:52.782Z,98513.34
2023-05-13T12:33:24.156Z,98515.22
2023-05-13T12:35:53.377Z,98511.47
2023-05-13T12:38:22.240Z,98513.50
2023-05-13T12:40:49.542Z,98519.81
2023-05-13T12:43:17.735Z,98514.75
2023-05-13T12:45:46.653Z,98515.97
2023-05-13T12:48:14.668Z,98512.72
2023-05-13T12:50:41.794Z,98511.16
2023-05-13T12:53:08.620Z,98510.44
2023-05-13T12:55:40.112Z,98514.41
2023-05-13T12:58:08.026Z,98514.50
2023-05-13T13:00:34.942Z,98512.28
2023-05-13T13:03:01.868Z,98514.41
2023-05-13T13:05:28.775Z,98513.31
2023-05-13T13:07:55.801Z,98511.72
2023-05-13T13:10:22.647Z,98511.75
2023-05-13T13:12:50.299Z,98505.25
2023-05-13T13:15:17.214Z,98517.69
2023-05-13T13:17:44.194Z,98513.63
2023-05-13T13:20:11.564Z,98504.59
2023-05-13T13:22:41.073Z,98511.75
2023-05-13T13:25:08.642Z,98507.25
2023-05-13T13:27:35.568Z,98498.00
2023-05-13T13:30:02.866Z,98497.66
2023-05-13T13:32:29.760Z,98502.38
2023-05-13T13:34:58.319Z,98500.44
2023-05-13T13:37:25.884Z,98489.50
2023-05-13T13:39:52.714Z,98492.72
2023-05-13T13:42:19.549Z,98488.81
2023-05-13T13:44:46.414Z,98497.38
2023-05-13T13:47:13.327Z,98500.50
2023-05-13T13:49:40.210Z,98496.84
2023-05-13T13:52:07.159Z,98495.44
2023-05-13T13:54:34.056Z,98505.72
2023-05-13T13:57:00.958Z,98502.03
2023-05-13T13:59:27.858Z,98504.84
2023-05-13T14:01:54.708Z,98498.63
2023-05-13T14:04:27.632Z,98491.69
2023-05-13T14:06:57.873Z,98490.47
2023-05-13T14:09:24.993Z,98488.88
2023-05-13T14:11:52.103Z,98487.50
2023-05-13T14:14:19.140Z,98487.50
2023-05-13T14:16:46.086Z,98490.00
2023-05-13T14:19:13.148Z,98491.75
2023-05-13T14:21:40.207Z,98488.56
2023-05-13T14:24:08.590Z,98489.84
2023-05-13T14:26:35.718Z,98492.13
2023-05-13T14:29:02.565Z,98493.97
2023-05-13T14:31:30.060Z,98498.87
2023-05-13T14:33:56.966Z,98489.38
2023-05-13T14:36:26.684Z,98490.28
2023-05-13T14:38:54.378Z,98490.59
2023-05-13T14:41:21.837Z,98477.41
2023-05-13T14:43:49.207Z,98483.84
2023-05-13T14:46:17.203Z,98481.72
2023-05-13T14:48:44.344Z,98479.00
2023-05-13T14:51:12.542Z,98473.91
2023-05-13T14:53:40.051Z,98467.81
2023-05-13T14:56:07.566Z,98466.88
2023-05-13T14:58:34.436Z,98462.94
2023-05-13T15:01:01.612Z,98474.47
2023-05-13T15:03:28.570Z,98473.69
2023-05-13T15:05:56.215Z,98486.19
2023-05-13T15:08:23.130Z,98483.91
2023-05-13T15:10:50.060Z,98483.22
2023-05-13T15:13:17.123Z,98483.50
2023-05-13T15:15:44.024Z,98481.16
2023-05-13T15:18:16.748Z,98484.47
2023-05-13T15:20:45.441Z,98474.44
2023-05-13T15:23:12.345Z,98470.50
2023-05-13T15:25:39.206Z,98483.91
2023-05-13T15:28:05.997Z,98484.03
2023-05-13T15:30:36.465Z,98488.22
2023-05-13T15:33:04.404Z,98488.78
2023-05-13T15:35:31.333Z,98483.22
2023-05-13T15:37:58.248Z,98483.28
2023-05-13T15:40:25.089Z,98475.31
2023-05-13T15:42:51.949Z,98466.78
2023-05-13T15:45:18.896Z,98472.78
2023-05-13T15:47:45.829Z,98462.06
2023-05-13T15:50:14.055Z,98465.34
2023-05-13T15:52:40.984Z,98462.37
2023-05-13T15:55:08.021Z,98458.94
2023-05-13T15:57:34.848Z,98460.81
2023-05-13T16:00:01.694Z,98466.47
2023-05-13T16:02:36.129Z,98462.59
2023-05-13T16:05:03.166Z,98472.84
2023-05-13T16:07:30.053Z,98475.31
2023-05-13T16:09:56.922Z,98480.97
2023-05-13T16:12:23.783Z,98472.25
2023-05-13T16:14:50.956Z,98466.53
2023-05-13T16:17:18.323Z,98470.44
2023-05-13T16:19:46.178Z,98480.09
2023-05-13T16:22:34.175Z,98471.81
2023-05-13T16:25:02.527Z,98474.47
2023-05-13T16:27:29.707Z,98472.22
2023-05-13T16:29:57.640Z,98463.94
2023-05-13T16:32:25.001Z,98466.78
2023-05-13T16:34:52.319Z,98475.97
2023-05-13T16:37:19.249Z,98472.38
2023-05-13T16:39:48.199Z,98476.34
2023-05-13T16:42:15.070Z,98473.06
2023-05-13T16:44:41.922Z,98465.78
2023-05-13T16:47:09.367Z,98461.47
2023-05-13T16:49:36.825Z,98463.22
2023-05-13T16:52:04.752Z,98456.47
2023-05-13T16:54:31.684Z,98457.97
2023-05-13T16:56:58.960Z,98460.81
2023-05-13T16:59:27.834Z,98442.31
2023-05-13T17:01:55.016Z,98448.59
2023-05-13T17:04:22.044Z,98444.81
2023-05-13T17:06:49.099Z,98447.13
2023-05-13T17:09:16.330Z,98449.09
2023-05-13T17:11:43.750Z,98453.53
2023-05-13T17:14:10.730Z,98451.94
2023-05-13T17:16:38.600Z,98457.53
2023-05-13T17:19:05.587Z,98446.91
2023-05-13T17:21:32.505Z,98441.72
2023-05-13T17:23:59.666Z,98450.66
2023-05-13T17:26:26.674Z,98449.44
2023-05-13T17:28:54.701Z,98449.81
2023-05-13T17:31:22.261Z,98445.50
2023-05-13T17:33:49.851Z,98456.81
2023-05-13T17:36:16.713Z,98457.03
2023-05-13T17:38:43.587Z,98452.16
2023-05-13T17:41:10.491Z,98462.00
2023-05-13T17:43:37.308Z,98466.31
2023-05-13T17:46:04.395Z,98461.56
2023-05-13T17:48:33.173Z,98466.38
2023-05-13T17:51:00.284Z,98448.97
2023-05-13T17:53:27.152Z,98456.91
2023-05-13T17:55:54.044Z,98458.75
2023-05-13T17:58:21.001Z,98461.31
2023-05-13T18:00:49.192Z,98455.94
2023-05-13T18:03:17.600Z,98457.09
2023-05-13T18:05:44.557Z,98452.34
2023-05-13T18:08:11.440Z,98453.63
2023-05-13T18:10:38.443Z,98458.31
2023-05-13T18:13:05.500Z,98465.81
2023-05-13T18:15:32.479Z,98475.63
2023-05-13T18:17:59.360Z,98468.00
2023-05-13T18:20:26.404Z,98470.75
2023-05-13T18:22:53.230Z,98470.66
2023-05-13T18:25:20.116Z,98473.97
2023-05-13T18:27:47.051Z,98483.53
2023-05-13T18:30:15.363Z,98482.84
2023-05-13T18:32:42.240Z,98479.59
2023-05-13T18:35:09.619Z,98481.66
2023-05-13T18:37:37.315Z,98477.31
2023-05-13T18:40:04.512Z,98469.34
2023-05-13T18:42:31.363Z,98474.81
2023-05-13T18:44:58.182Z,98478.03
2023-05-13T18:47:25.065Z,98464.56
2023-05-13T18:49:51.922Z,98466.72
2023-05-13T18:52:18.766Z,98458.28
2023-05-13T18:54:45.737Z,98470.41
2023-05-13T18:57:12.632Z,98465.72
2023-05-13T18:59:39.470Z,98467.41
2023-05-13T19:02:06.427Z,98476.37
2023-05-13T19:04:33.746Z,98486.69
2023-05-13T19:07:01.577Z,98495.47
2023-05-13T19:09:28.436Z,98491.37
2023-05-13T19:11:55.293Z,98498.59
2023-05-13T19:14:22.197Z,98502.50
2023-05-13T19:16:49.089Z,98504.66
2023-05-13T19:19:16.154Z,98508.75
2023-05-13T19:21:43.043Z,98504.00
2023-05-13T19:24:09.918Z,98504.47
2023-05-13T19:26:36.812Z,98508.94
2023-05-13T19:29:04.677Z,98511.59
2023-05-13T19:31:32.495Z,98513.00
2023-05-13T19:34:01.422Z,98511.12
2023-05-13T19:36:28.365Z,98511.34
2023-05-13T19:38:57.031Z,98522.37
2023-05-13T19:41:23.932Z,98515.22
2023-05-13T19:43:50.903Z,98518.28
2023-05-13T19:46:17.867Z,98519.03
2023-05-13T19:48:44.796Z,98515.88
2023-05-13T19:51:11.657Z,98517.63
2023-05-13T19:53:38.590Z,98523.63
2023-05-13T19:56:05.529Z,98527.44
2023-05-13T19:58:32.627Z,98514.56
2023-05-13T20:00:59.527Z,98517.31
2023-05-13T20:03:26.532Z,98523.50
2023-05-13T20:05:54.051Z,98523.47
2023-05-13T20:08:21.421Z,98518.91
2023-05-13T20:10:48.274Z,98523.13
2023-05-13T20:13:15.128Z,98519.00
2023-05-13T20:15:42.467Z,98510.72
2023-05-13T20:18:09.522Z,98513.75
2023-05-13T20:20:36.513Z,98514.50
2023-05-13T20:23:03.331Z,98512.69
2023-05-13T20:25:30.190Z,98514.72
2023-05-13T20:27:57.094Z,98511.03
2023-05-13T20:30:24.394Z,98508.06
2023-05-13T20:32:51.723Z,98514.03
2023-05-13T20:35:18.597Z,98504.47
2023-05-13T20:37:45.560Z,98513.59
2023-05-13T20:40:12.764Z,98509.25
2023-05-13T20:42:39.703Z,98497.50
2023-05-13T20:45:08.839Z,98504.38
2023-05-13T20:47:36.419Z,98496.09
2023-05-13T20:50:03.843Z,98494.94
2023-05-13T20:52:30.885Z,98499.47
2023-05-13T20:54:57.928Z,98494.06
2023-05-13T20:57:25.755Z,98486.84
2023-05-13T20:59:53.649Z,98485.03
2023-05-13T21:02:20.490Z,98490.00
2023-05-13T21:04:47.348Z,98491.50
2023-05-13T21:07:14.192Z,98482.25
2023-05-13T21:09:41.080Z,98481.31
2023-05-13T21:12:07.977Z,98481.19
2023-05-13T21:14:34.817Z,98481.28
2023-05-13T21:17:03.559Z,98479.06
2023-05-13T21:19:31.534Z,98473.62
2023-05-13T21:22:00.143Z,98473.94
2023-05-13T21:24:26.989Z,98474.09
2023-05-13T21:26:54.002Z,98468.06
2023-05-13T21:29:20.875Z,98463.41
2023-05-13T21:31:48.048Z,98460.91
2023-05-13T21:34:15.087Z,98465.06
2023-05-13T21:36:42.157Z,98459.50
2023-05-13T21:39:22.998Z,98460.13
2023-05-13T21:41:49.845Z,98463.47
2023-05-13T21:44:16.666Z,98453.09
2023-05-13T21:46:43.496Z,98459.91
2023-05-13T21:49:19.624Z,98455.38
2023-05-13T21:51:46.465Z,98455.22
2023-05-13T21:54:13.292Z,98449.22
2023-05-13T21:56:40.164Z,98444.69
2023-05-13T21:59:07.052Z,98449.75
2023-05-13T22:01:33.935Z,98454.66
2023-05-13T22:04:00.827Z,98452.16
2023-05-13T22:06:27.960Z,98454.06
2023-05-13T22:08:54.806Z,98455.19
2023-05-13T22:11:22.137Z,98463.97
2023-05-13T22:13:49.041Z,98457.97
2023-05-13T22:16:15.922Z,98468.59
2023-05-13T22:18:43.111Z,98460.03
2023-05-13T22:21:10.132Z,98465.75
2023-05-13T22:23:37.550Z,98458.59
2023-05-13T22:26:05.174Z,98461.34
2023-05-13T22:28:32.067Z,98460.03
2023-05-13T22:30:58.895Z,98457.81
2023-05-13T22:33:25.910Z,98455.47
2023-05-13T22:35:52.724Z,98462.37
2023-05-13T22:38:19.641Z,98454.06
2023-05-13T22:40:46.503Z,98455.38
2023-05-13T22:43:13.341Z,98455.53
2023-05-13T22:45:40.726Z,98444.78
2023-05-13T22:48:08.285Z,98449.41
2023-05-13T22:50:35.192Z,98440.28
2023-05-13T22:53:02.432Z,98428.31
2023-05-13T22:55:29.262Z,98430.81
2023-05-13T22:57:56.108Z,98423.16
2023-05-13T23:00:23.331Z,98424.03
2023-05-13T23:02:50.393Z,98409.38
2023-05-13T23:05:17.608Z,98411.00
2023-05-13T23:07:44.480Z,98405.78
2023-05-13T23:10:11.483Z,98414.03
2023-05-13T23:12:38.544Z,98409.56
2023-05-13T23:15:07.110Z,98409.25
2023-05-13T23:17:34.099Z,98389.84
2023-05-13T23:20:01.200Z,98392.81
2023-05-13T23:22:28.028Z,98389.34
2023-05-13T23:24:54.930Z,98397.16
2023-05-13T23:27:22.028Z,98382.00
2023-05-13T23:29:48.899Z,98386.34
2023-05-13T23:32:16.171Z,98387.44
2023-05-13T23:34:43.055Z,98396.62
2023-05-13T23:37:09.952Z,98380.47
2023-05-13T23:39:36.863Z,98386.44
2023-05-13T23:42:03.925Z,98383.97
2023-05-13T23:44:30.880Z,98375.75
2023-05-13T23:46:58.713Z,98381.78
2023-05-13T23:49:25.610Z,98376.13
2023-05-13T23:51:52.416Z,98378.75
2023-05-13T23:54:19.265Z,98370.41
2023-05-13T23:56:46.150Z,98370.87
2023-05-13T23:59:13.046Z,98364.84
